sensor_id;sensor_type;location;lat;lon;timestamp;temperature;humidity
23579;DHT22;11967;50.852;4.400;2023-04-24T00:00:09;11.90;99.90
23579;DHT22;11967;50.852;4.400;2023-04-24T00:02:35;11.80;99.90
23579;DHT22;11967;50.852;4.400;2023-04-24T00:05:07;11.70;99.90
23579;DHT22;11967;50.852;4.400;2023-04-24T00:07:33;11.70;99.90
23579;DHT22;11967;50.852;4.400;2023-04-24T00:09:59;11.60;99.90
23579;DHT22;11967;50.852;4.400;2023-04-24T00:12:26;11.60;99.90
23579;DHT22;11967;50.852;4.400;2023-04-24T00:14:52;11.60;99.90
23579;DHT22;11967;50.852;4.400;2023-04-24T00:17:19;11.60;99.90
23579;DHT22;11967;50.852;4.400;2023-04-24T00:19:48;11.60;99.90
23579;DHT22;11967;50.852;4.400;2023-04-24T00:22:15;11.60;99.90
23579;DHT22;11967;50.852;4.400;2023-04-24T00:24:46;11.60;99.90
23579;DHT22;11967;50.852;4.400;2023-04-24T00:27:12;11.60;99.90
23579;DHT22;11967;50.852;4.400;2023-04-24T00:29:37;11.60;99.90
23579;DHT22;11967;50.852;4.400;2023-04-24T00:32:04;11.60;99.90
23579;DHT22;11967;50.852;4.400;2023-04-24T00:34:30;11.70;99.90
23579;DHT22;11967;50.852;4.400;2023-04-24T00:36:57;11.60;99.90
23579;DHT22;11967;50.852;4.400;2023-04-24T00:39:23;11.60;99.90
23579;DHT22;11967;50.852;4.400;2023-04-24T00:41:49;11.70;99.90
23579;DHT22;11967;50.852;4.400;2023-04-24T00:44:16;11.60;99.90
23579;DHT22;11967;50.852;4.400;2023-04-24T00:46:42;11.60;99.90
23579;DHT22;11967;50.852;4.400;2023-04-24T00:49:08;11.50;99.90
23579;DHT22;11967;50.852;4.400;2023-04-24T00:51:33;11.60;99.90
23579;DHT22;11967;50.852;4.400;2023-04-24T00:54:01;11.50;99.90
23579;DHT22;11967;50.852;4.400;2023-04-24T00:56:28;11.60;99.90
23579;DHT22;11967;50.852;4.400;2023-04-24T00:58:54;11.70;99.90
23579;DHT22;11967;50.852;4.400;2023-04-24T01:01:21;11.70;99.90
23579;DHT22;11967;50.852;4.400;2023-04-24T01:03:49;11.70;99.90
23579;DHT22;11967;50.852;4.400;2023-04-24T01:06:15;11.70;99.90
23579;DHT22;11967;50.852;4.400;2023-04-24T01:08:41;11.60;99.90
23579;DHT22;11967;50.852;4.400;2023-04-24T01:11:07;11.60;99.90
23579;DHT22;11967;50.852;4.400;2023-04-24T01:13:33;11.60;99.90
23579;DHT22;11967;50.852;4.400;2023-04-24T01:16:00;11.50;99.90
23579;DHT22;11967;50.852;4.400;2023-04-24T01:18:27;11.60;99.90
23579;DHT22;11967;50.852;4.400;2023-04-24T01:20:54;11.50;99.90
23579;DHT22;11967;50.852;4.400;2023-04-24T01:23:22;11.50;99.90
23579;DHT22;11967;50.852;4.400;2023-04-24T01:25:48;11.40;99.90
23579;DHT22;11967;50.852;4.400;2023-04-24T01:28:15;11.50;99.90
23579;DHT22;11967;50.852;4.400;2023-04-24T01:30:41;11.40;99.90
23579;DHT22;11967;50.852;4.400;2023-04-24T01:33:07;11.30;99.90
23579;DHT22;11967;50.852;4.400;2023-04-24T01:35:33;11.20;99.90
23579;DHT22;11967;50.852;4.400;2023-04-24T01:37:59;11.30;99.90
23579;DHT22;11967;50.852;4.400;2023-04-24T01:40:25;11.40;99.90
23579;DHT22;11967;50.852;4.400;2023-04-24T01:42:51;11.20;99.90
23579;DHT22;11967;50.852;4.400;2023-04-24T01:45:17;11.20;99.90
23579;DHT22;11967;50.852;4.400;2023-04-24T01:47:44;11.20;99.90
23579;DHT22;11967;50.852;4.400;2023-04-24T01:50:10;11.30;99.90
23579;DHT22;11967;50.852;4.400;2023-04-24T01:52:39;11.30;99.90
23579;DHT22;11967;50.852;4.400;2023-04-24T01:55:05;11.40;99.90
23579;DHT22;11967;50.852;4.400;2023-04-24T01:57:32;11.30;99.90
23579;DHT22;11967;50.852;4.400;2023-04-24T01:59:58;11.20;99.90
23579;DHT22;11967;50.852;4.400;2023-04-24T02:02:24;11.20;99.90
23579;DHT22;11967;50.852;4.400;2023-04-24T02:04:55;11.30;99.90
23579;DHT22;11967;50.852;4.400;2023-04-24T02:07:21;11.40;99.90
23579;DHT22;11967;50.852;4.400;2023-04-24T02:09:47;11.30;99.90
23579;DHT22;11967;50.852;4.400;2023-04-24T02:12:13;11.40;99.90
23579;DHT22;11967;50.852;4.400;2023-04-24T02:14:39;11.40;99.90
23579;DHT22;11967;50.852;4.400;2023-04-24T02:17:04;11.30;99.90
23579;DHT22;11967;50.852;4.400;2023-04-24T02:19:30;11.20;99.90
23579;DHT22;11967;50.852;4.400;2023-04-24T02:21:56;11.20;99.90
23579;DHT22;11967;50.852;4.400;2023-04-24T02:24:22;11.30;99.90
23579;DHT22;11967;50.852;4.400;2023-04-24T02:26:47;11.20;99.90
23579;DHT22;11967;50.852;4.400;2023-04-24T02:29:13;11.20;99.90
23579;DHT22;11967;50.852;4.400;2023-04-24T02:31:40;11.20;99.90
23579;DHT22;11967;50.852;4.400;2023-04-24T02:34:05;11.20;99.90
23579;DHT22;11967;50.852;4.400;2023-04-24T02:36:31;11.20;99.90
23579;DHT22;11967;50.852;4.400;2023-04-24T02:38:57;11.20;99.90
23579;DHT22;11967;50.852;4.400;2023-04-24T02:41:22;11.10;99.90
23579;DHT22;11967;50.852;4.400;2023-04-24T02:43:48;11.10;99.90
23579;DHT22;11967;50.852;4.400;2023-04-24T02:46:14;11.10;99.90
23579;DHT22;11967;50.852;4.400;2023-04-24T02:48:39;11.10;99.90
23579;DHT22;11967;50.852;4.400;2023-04-24T02:51:05;11.00;99.90
23579;DHT22;11967;50.852;4.400;2023-04-24T02:53:32;11.00;99.90
23579;DHT22;11967;50.852;4.400;2023-04-24T02:55:57;11.00;99.90
23579;DHT22;11967;50.852;4.400;2023-04-24T02:58:23;11.10;99.90
23579;DHT22;11967;50.852;4.400;2023-04-24T03:00:52;11.10;99.90
23579;DHT22;11967;50.852;4.400;2023-04-24T03:03:19;11.10;99.90
23579;DHT22;11967;50.852;4.400;2023-04-24T03:05:44;11.10;99.90
23579;DHT22;11967;50.852;4.400;2023-04-24T03:08:11;11.00;99.90
23579;DHT22;11967;50.852;4.400;2023-04-24T03:10:36;11.00;99.90
23579;DHT22;11967;50.852;4.400;2023-04-24T03:13:02;11.10;99.90
23579;DHT22;11967;50.852;4.400;2023-04-24T03:15:28;11.10;99.90
23579;DHT22;11967;50.852;4.400;2023-04-24T03:17:53;10.90;99.90
23579;DHT22;11967;50.852;4.400;2023-04-24T03:20:19;10.90;99.90
23579;DHT22;11967;50.852;4.400;2023-04-24T03:22:45;10.90;99.90
23579;DHT22;11967;50.852;4.400;2023-04-24T03:25:10;10.90;99.90
23579;DHT22;11967;50.852;4.400;2023-04-24T03:27:36;10.90;99.90
23579;DHT22;11967;50.852;4.400;2023-04-24T03:30:02;10.90;99.90
23579;DHT22;11967;50.852;4.400;2023-04-24T03:32:28;11.00;99.90
23579;DHT22;11967;50.852;4.400;2023-04-24T03:34:54;11.00;99.90
23579;DHT22;11967;50.852;4.400;2023-04-24T03:37:20;11.10;99.90
23579;DHT22;11967;50.852;4.400;2023-04-24T03:39:45;11.10;99.90
23579;DHT22;11967;50.852;4.400;2023-04-24T03:42:11;11.20;99.90
23579;DHT22;11967;50.852;4.400;2023-04-24T03:44:36;11.10;99.90
23579;DHT22;11967;50.852;4.400;2023-04-24T03:47:02;11.10;99.90
23579;DHT22;11967;50.852;4.400;2023-04-24T03:49:28;11.00;99.90
23579;DHT22;11967;50.852;4.400;2023-04-24T03:51:54;10.90;99.90
23579;DHT22;11967;50.852;4.400;2023-04-24T03:54:19;10.90;99.90
23579;DHT22;11967;50.852;4.400;2023-04-24T03:56:45;11.00;99.90
23579;DHT22;11967;50.852;4.400;2023-04-24T03:59:11;11.10;99.90
23579;DHT22;11967;50.852;4.400;2023-04-24T04:01:37;11.10;99.90
23579;DHT22;11967;50.852;4.400;2023-04-24T04:04:04;11.10;99.90
23579;DHT22;11967;50.852;4.400;2023-04-24T04:06:30;11.10;99.90
23579;DHT22;11967;50.852;4.400;2023-04-24T04:08:57;11.20;99.90
23579;DHT22;11967;50.852;4.400;2023-04-24T04:11:23;11.20;99.90
23579;DHT22;11967;50.852;4.400;2023-04-24T04:13:48;11.30;99.90
23579;DHT22;11967;50.852;4.400;2023-04-24T04:16:14;11.20;99.90
23579;DHT22;11967;50.852;4.400;2023-04-24T04:18:42;11.20;99.90
23579;DHT22;11967;50.852;4.400;2023-04-24T04:21:08;11.30;99.90
23579;DHT22;11967;50.852;4.400;2023-04-24T04:23:33;11.30;99.90
23579;DHT22;11967;50.852;4.400;2023-04-24T04:25:59;11.20;99.90
23579;DHT22;11967;50.852;4.400;2023-04-24T04:28:25;11.20;99.90
23579;DHT22;11967;50.852;4.400;2023-04-24T04:30:51;11.20;99.90
23579;DHT22;11967;50.852;4.400;2023-04-24T04:33:21;11.30;99.90
23579;DHT22;11967;50.852;4.400;2023-04-24T04:35:47;11.30;99.90
23579;DHT22;11967;50.852;4.400;2023-04-24T04:38:20;11.30;99.90
23579;DHT22;11967;50.852;4.400;2023-04-24T04:40:46;11.30;99.90
23579;DHT22;11967;50.852;4.400;2023-04-24T04:43:12;11.30;99.90
23579;DHT22;11967;50.852;4.400;2023-04-24T04:45:40;11.20;99.90
23579;DHT22;11967;50.852;4.400;2023-04-24T04:48:08;11.20;99.90
23579;DHT22;11967;50.852;4.400;2023-04-24T04:50:35;11.30;99.90
23579;DHT22;11967;50.852;4.400;2023-04-24T04:53:01;11.30;99.90
23579;DHT22;11967;50.852;4.400;2023-04-24T04:55:26;11.20;99.90
23579;DHT22;11967;50.852;4.400;2023-04-24T04:57:53;11.30;99.90
23579;DHT22;11967;50.852;4.400;2023-04-24T05:00:20;11.30;99.90
23579;DHT22;11967;50.852;4.400;2023-04-24T05:02:46;11.20;99.90
23579;DHT22;11967;50.852;4.400;2023-04-24T05:05:13;11.10;99.90
23579;DHT22;11967;50.852;4.400;2023-04-24T05:07:38;11.10;99.90
23579;DHT22;11967;50.852;4.400;2023-04-24T05:10:04;11.00;99.90
23579;DHT22;11967;50.852;4.400;2023-04-24T05:12:30;11.00;99.90
23579;DHT22;11967;50.852;4.400;2023-04-24T05:14:56;11.20;99.90
23579;DHT22;11967;50.852;4.400;2023-04-24T05:17:21;11.10;99.90
23579;DHT22;11967;50.852;4.400;2023-04-24T05:19:47;11.10;99.90
23579;DHT22;11967;50.852;4.400;2023-04-24T05:22:13;11.20;99.90
23579;DHT22;11967;50.852;4.400;2023-04-24T05:24:39;11.20;99.90
23579;DHT22;11967;50.852;4.400;2023-04-24T05:27:05;11.20;99.90
23579;DHT22;11967;50.852;4.400;2023-04-24T05:29:31;11.20;99.90
23579;DHT22;11967;50.852;4.400;2023-04-24T05:31:57;11.10;99.90
23579;DHT22;11967;50.852;4.400;2023-04-24T05:34:23;11.00;99.90
23579;DHT22;11967;50.852;4.400;2023-04-24T05:36:50;11.10;99.90
23579;DHT22;11967;50.852;4.400;2023-04-24T05:39:16;11.00;99.90
23579;DHT22;11967;50.852;4.400;2023-04-24T05:41:42;11.10;99.90
23579;DHT22;11967;50.852;4.400;2023-04-24T05:44:07;11.10;99.90
23579;DHT22;11967;50.852;4.400;2023-04-24T05:46:33;10.90;99.90
23579;DHT22;11967;50.852;4.400;2023-04-24T05:48:59;10.90;99.90
23579;DHT22;11967;50.852;4.400;2023-04-24T05:51:25;10.90;99.90
23579;DHT22;11967;50.852;4.400;2023-04-24T05:53:51;10.90;99.90
23579;DHT22;11967;50.852;4.400;2023-04-24T05:56:17;11.00;99.90
23579;DHT22;11967;50.852;4.400;2023-04-24T05:58:44;11.00;99.90
23579;DHT22;11967;50.852;4.400;2023-04-24T06:01:13;11.00;99.90
23579;DHT22;11967;50.852;4.400;2023-04-24T06:03:42;11.00;99.90
23579;DHT22;11967;50.852;4.400;2023-04-24T06:06:09;11.00;99.90
23579;DHT22;11967;50.852;4.400;2023-04-24T06:08:35;11.00;99.90
23579;DHT22;11967;50.852;4.400;2023-04-24T06:11:01;10.90;99.90
23579;DHT22;11967;50.852;4.400;2023-04-24T06:13:27;10.90;99.90
23579;DHT22;11967;50.852;4.400;2023-04-24T06:15:53;10.70;99.90
23579;DHT22;11967;50.852;4.400;2023-04-24T06:18:19;10.70;99.90
23579;DHT22;11967;50.852;4.400;2023-04-24T06:20:46;10.70;99.90
23579;DHT22;11967;50.852;4.400;2023-04-24T06:23:12;10.70;99.90
23579;DHT22;11967;50.852;4.400;2023-04-24T06:25:38;10.70;99.90
23579;DHT22;11967;50.852;4.400;2023-04-24T06:28:04;10.70;99.90
23579;DHT22;11967;50.852;4.400;2023-04-24T06:30:31;10.80;99.90
23579;DHT22;11967;50.852;4.400;2023-04-24T06:32:57;10.90;99.90
23579;DHT22;11967;50.852;4.400;2023-04-24T06:35:23;11.00;99.90
23579;DHT22;11967;50.852;4.400;2023-04-24T06:37:48;11.00;99.90
23579;DHT22;11967;50.852;4.400;2023-04-24T06:40:14;10.90;99.90
23579;DHT22;11967;50.852;4.400;2023-04-24T06:42:40;11.00;99.90
23579;DHT22;11967;50.852;4.400;2023-04-24T06:45:06;11.10;99.90
23579;DHT22;11967;50.852;4.400;2023-04-24T06:47:32;11.10;99.90
23579;DHT22;11967;50.852;4.400;2023-04-24T06:49:58;11.00;99.90
23579;DHT22;11967;50.852;4.400;2023-04-24T06:52:23;10.90;99.90
23579;DHT22;11967;50.852;4.400;2023-04-24T06:54:49;10.80;99.90
23579;DHT22;11967;50.852;4.400;2023-04-24T06:57:15;10.80;99.90
23579;DHT22;11967;50.852;4.400;2023-04-24T06:59:42;10.90;99.90
23579;DHT22;11967;50.852;4.400;2023-04-24T07:02:07;10.90;99.90
23579;DHT22;11967;50.852;4.400;2023-04-24T07:04:33;11.00;99.90
23579;DHT22;11967;50.852;4.400;2023-04-24T07:06:59;10.80;99.90
23579;DHT22;11967;50.852;4.400;2023-04-24T07:09:25;10.90;99.90
23579;DHT22;11967;50.852;4.400;2023-04-24T07:11:52;10.90;99.90
23579;DHT22;11967;50.852;4.400;2023-04-24T07:14:18;10.90;99.90
23579;DHT22;11967;50.852;4.400;2023-04-24T07:16:44;10.80;99.90
23579;DHT22;11967;50.852;4.400;2023-04-24T07:19:11;10.70;99.90
23579;DHT22;11967;50.852;4.400;2023-04-24T07:21:36;10.80;99.90
23579;DHT22;11967;50.852;4.400;2023-04-24T07:24:02;10.90;99.90
23579;DHT22;11967;50.852;4.400;2023-04-24T07:26:31;10.90;99.90
23579;DHT22;11967;50.852;4.400;2023-04-24T07:28:57;10.90;99.90
23579;DHT22;11967;50.852;4.400;2023-04-24T07:31:23;10.90;99.90
23579;DHT22;11967;50.852;4.400;2023-04-24T07:33:49;11.00;99.90
23579;DHT22;11967;50.852;4.400;2023-04-24T07:36:16;11.10;99.90
23579;DHT22;11967;50.852;4.400;2023-04-24T07:38:45;11.10;99.90
23579;DHT22;11967;50.852;4.400;2023-04-24T07:41:13;11.10;99.90
23579;DHT22;11967;50.852;4.400;2023-04-24T07:43:38;11.10;99.90
23579;DHT22;11967;50.852;4.400;2023-04-24T07:46:04;11.00;99.90
23579;DHT22;11967;50.852;4.400;2023-04-24T07:48:30;11.00;99.90
23579;DHT22;11967;50.852;4.400;2023-04-24T07:50:55;11.10;99.90
23579;DHT22;11967;50.852;4.400;2023-04-24T07:53:21;11.10;99.90
23579;DHT22;11967;50.852;4.400;2023-04-24T07:55:47;11.20;99.90
23579;DHT22;11967;50.852;4.400;2023-04-24T07:58:13;11.30;99.90
23579;DHT22;11967;50.852;4.400;2023-04-24T08:00:38;11.30;99.90
23579;DHT22;11967;50.852;4.400;2023-04-24T08:03:04;11.30;99.90
23579;DHT22;11967;50.852;4.400;2023-04-24T08:05:30;11.40;99.90
23579;DHT22;11967;50.852;4.400;2023-04-24T08:07:56;11.40;99.90
23579;DHT22;11967;50.852;4.400;2023-04-24T08:10:22;11.50;99.90
23579;DHT22;11967;50.852;4.400;2023-04-24T08:12:48;11.50;99.90
23579;DHT22;11967;50.852;4.400;2023-04-24T08:15:14;11.30;99.90
23579;DHT22;11967;50.852;4.400;2023-04-24T08:17:40;11.30;99.90
23579;DHT22;11967;50.852;4.400;2023-04-24T08:20:06;11.40;99.90
23579;DHT22;11967;50.852;4.400;2023-04-24T08:22:35;11.40;99.90
23579;DHT22;11967;50.852;4.400;2023-04-24T08:25:01;11.50;99.90
23579;DHT22;11967;50.852;4.400;2023-04-24T08:27:27;11.60;99.90
23579;DHT22;11967;50.852;4.400;2023-04-24T08:29:54;11.60;99.90
23579;DHT22;11967;50.852;4.400;2023-04-24T08:32:19;11.60;99.90
23579;DHT22;11967;50.852;4.400;2023-04-24T08:34:45;11.50;99.90
23579;DHT22;11967;50.852;4.400;2023-04-24T08:37:11;11.50;99.90
23579;DHT22;11967;50.852;4.400;2023-04-24T08:39:37;11.60;99.90
23579;DHT22;11967;50.852;4.400;2023-04-24T08:42:04;11.70;99.90
23579;DHT22;11967;50.852;4.400;2023-04-24T08:44:34;11.60;99.90
23579;DHT22;11967;50.852;4.400;2023-04-24T08:47:01;11.60;99.90
23579;DHT22;11967;50.852;4.400;2023-04-24T08:49:28;11.60;99.90
23579;DHT22;11967;50.852;4.400;2023-04-24T08:51:54;11.60;99.90
23579;DHT22;11967;50.852;4.400;2023-04-24T08:54:21;11.70;99.90
23579;DHT22;11967;50.852;4.400;2023-04-24T08:56:48;11.80;99.90
23579;DHT22;11967;50.852;4.400;2023-04-24T08:59:14;11.90;99.90
23579;DHT22;11967;50.852;4.400;2023-04-24T09:01:40;11.90;99.90
23579;DHT22;11967;50.852;4.400;2023-04-24T09:04:08;11.80;99.90
23579;DHT22;11967;50.852;4.400;2023-04-24T09:06:38;11.80;99.90
23579;DHT22;11967;50.852;4.400;2023-04-24T09:09:04;11.80;99.90
23579;DHT22;11967;50.852;4.400;2023-04-24T09:11:31;11.80;99.90
23579;DHT22;11967;50.852;4.400;2023-04-24T09:13:58;11.90;99.90
23579;DHT22;11967;50.852;4.400;2023-04-24T09:16:25;11.90;99.90
23579;DHT22;11967;50.852;4.400;2023-04-24T09:18:52;12.10;99.90
23579;DHT22;11967;50.852;4.400;2023-04-24T09:21:20;12.30;99.90
23579;DHT22;11967;50.852;4.400;2023-04-24T09:23:46;12.30;99.90
23579;DHT22;11967;50.852;4.400;2023-04-24T09:26:12;12.40;99.90
23579;DHT22;11967;50.852;4.400;2023-04-24T09:28:40;12.30;99.90
23579;DHT22;11967;50.852;4.400;2023-04-24T09:31:11;12.10;99.90
23579;DHT22;11967;50.852;4.400;2023-04-24T09:33:37;12.10;99.90
23579;DHT22;11967;50.852;4.400;2023-04-24T09:36:03;12.10;99.90
23579;DHT22;11967;50.852;4.400;2023-04-24T09:38:36;12.10;99.90
23579;DHT22;11967;50.852;4.400;2023-04-24T09:41:03;12.20;99.90
23579;DHT22;11967;50.852;4.400;2023-04-24T09:43:30;12.10;99.90
23579;DHT22;11967;50.852;4.400;2023-04-24T09:45:58;12.00;99.90
23579;DHT22;11967;50.852;4.400;2023-04-24T09:48:35;12.00;99.90
23579;DHT22;11967;50.852;4.400;2023-04-24T09:51:03;12.10;99.90
23579;DHT22;11967;50.852;4.400;2023-04-24T09:53:29;12.10;99.90
23579;DHT22;11967;50.852;4.400;2023-04-24T09:55:55;12.20;99.90
23579;DHT22;11967;50.852;4.400;2023-04-24T09:58:25;12.30;99.90
23579;DHT22;11967;50.852;4.400;2023-04-24T10:00:54;12.40;99.90
23579;DHT22;11967;50.852;4.400;2023-04-24T10:03:21;12.40;99.90
23579;DHT22;11967;50.852;4.400;2023-04-24T10:05:48;12.30;99.90
23579;DHT22;11967;50.852;4.400;2023-04-24T10:08:16;12.20;99.90
23579;DHT22;11967;50.852;4.400;2023-04-24T10:10:44;12.30;99.90
23579;DHT22;11967;50.852;4.400;2023-04-24T10:13:11;12.30;99.90
23579;DHT22;11967;50.852;4.400;2023-04-24T10:15:38;12.30;99.90
23579;DHT22;11967;50.852;4.400;2023-04-24T10:18:05;12.40;99.90
23579;DHT22;11967;50.852;4.400;2023-04-24T10:20:32;12.40;99.90
23579;DHT22;11967;50.852;4.400;2023-04-24T10:22:59;12.50;99.90
23579;DHT22;11967;50.852;4.400;2023-04-24T10:25:35;12.50;99.90
23579;DHT22;11967;50.852;4.400;2023-04-24T10:28:02;12.30;99.90
23579;DHT22;11967;50.852;4.400;2023-04-24T10:30:30;12.20;99.90
23579;DHT22;11967;50.852;4.400;2023-04-24T10:33:06;12.30;99.90
23579;DHT22;11967;50.852;4.400;2023-04-24T10:35:37;12.30;99.90
23579;DHT22;11967;50.852;4.400;2023-04-24T10:38:13;12.30;99.90
23579;DHT22;11967;50.852;4.400;2023-04-24T10:40:39;12.40;99.90
23579;DHT22;11967;50.852;4.400;2023-04-24T10:43:07;12.50;99.90
23579;DHT22;11967;50.852;4.400;2023-04-24T10:45:37;12.60;99.90
23579;DHT22;11967;50.852;4.400;2023-04-24T10:48:05;12.50;99.90
23579;DHT22;11967;50.852;4.400;2023-04-24T10:50:47;12.40;99.90
23579;DHT22;11967;50.852;4.400;2023-04-24T10:53:16;12.40;99.90
23579;DHT22;11967;50.852;4.400;2023-04-24T10:58:09;12.50;99.90
23579;DHT22;11967;50.852;4.400;2023-04-24T11:00:40;12.50;99.90
23579;DHT22;11967;50.852;4.400;2023-04-24T11:03:12;12.50;99.90
23579;DHT22;11967;50.852;4.400;2023-04-24T11:09:01;12.40;99.90
23579;DHT22;11967;50.852;4.400;2023-04-24T11:11:31;12.30;99.90
23579;DHT22;11967;50.852;4.400;2023-04-24T11:18:57;12.40;99.90
23579;DHT22;11967;50.852;4.400;2023-04-24T11:21:25;12.50;99.90
23579;DHT22;11967;50.852;4.400;2023-04-24T11:23:51;12.60;99.90
23579;DHT22;11967;50.852;4.400;2023-04-24T11:26:24;12.60;99.90
23579;DHT22;11967;50.852;4.400;2023-04-24T11:29:06;12.60;99.90
23579;DHT22;11967;50.852;4.400;2023-04-24T11:31:40;12.60;99.90
23579;DHT22;11967;50.852;4.400;2023-04-24T11:34:12;12.70;99.90
23579;DHT22;11967;50.852;4.400;2023-04-24T11:36:39;12.90;99.90
23579;DHT22;11967;50.852;4.400;2023-04-24T11:39:06;12.90;99.90
23579;DHT22;11967;50.852;4.400;2023-04-24T11:41:33;12.90;99.90
23579;DHT22;11967;50.852;4.400;2023-04-24T11:44:00;13.00;99.90
23579;DHT22;11967;50.852;4.400;2023-04-24T11:46:30;13.00;99.90
23579;DHT22;11967;50.852;4.400;2023-04-24T11:48:57;12.90;99.90
23579;DHT22;11967;50.852;4.400;2023-04-24T11:51:25;12.90;99.90
23579;DHT22;11967;50.852;4.400;2023-04-24T11:53:52;12.80;99.90
23579;DHT22;11967;50.852;4.400;2023-04-24T11:56:18;12.90;99.90
23579;DHT22;11967;50.852;4.400;2023-04-24T11:58:45;12.90;99.90
23579;DHT22;11967;50.852;4.400;2023-04-24T12:01:12;13.00;99.90
23579;DHT22;11967;50.852;4.400;2023-04-24T12:03:38;13.00;99.90
23579;DHT22;11967;50.852;4.400;2023-04-24T12:06:07;13.00;99.90
23579;DHT22;11967;50.852;4.400;2023-04-24T12:08:34;13.00;99.90
23579;DHT22;11967;50.852;4.400;2023-04-24T12:11:04;13.00;99.90
23579;DHT22;11967;50.852;4.400;2023-04-24T12:13:30;13.00;99.90
23579;DHT22;11967;50.852;4.400;2023-04-24T12:16:01;12.90;99.90
23579;DHT22;11967;50.852;4.400;2023-04-24T12:18:27;12.90;99.90
23579;DHT22;11967;50.852;4.400;2023-04-24T12:20:54;13.00;99.90
23579;DHT22;11967;50.852;4.400;2023-04-24T12:23:35;13.20;99.90
23579;DHT22;11967;50.852;4.400;2023-04-24T12:26:03;13.20;99.90
23579;DHT22;11967;50.852;4.400;2023-04-24T12:28:37;13.20;99.90
23579;DHT22;11967;50.852;4.400;2023-04-24T12:31:03;13.20;99.90
23579;DHT22;11967;50.852;4.400;2023-04-24T12:33:33;13.30;99.90
23579;DHT22;11967;50.852;4.400;2023-04-24T12:35:59;13.40;99.90
23579;DHT22;11967;50.852;4.400;2023-04-24T12:38:27;13.40;99.90
23579;DHT22;11967;50.852;4.400;2023-04-24T12:41:02;13.50;99.90
23579;DHT22;11967;50.852;4.400;2023-04-24T12:43:29;13.50;99.90
23579;DHT22;11967;50.852;4.400;2023-04-24T12:45:55;13.60;99.90
23579;DHT22;11967;50.852;4.400;2023-04-24T12:48:20;13.70;99.90
23579;DHT22;11967;50.852;4.400;2023-04-24T12:50:47;13.70;99.90
23579;DHT22;11967;50.852;4.400;2023-04-24T12:53:14;13.70;99.90
23579;DHT22;11967;50.852;4.400;2023-04-24T12:55:40;13.80;99.90
23579;DHT22;11967;50.852;4.400;2023-04-24T12:58:06;13.90;99.90
23579;DHT22;11967;50.852;4.400;2023-04-24T13:00:32;13.90;99.90
23579;DHT22;11967;50.852;4.400;2023-04-24T13:02:57;13.80;99.90
23579;DHT22;11967;50.852;4.400;2023-04-24T13:05:23;13.90;99.90
23579;DHT22;11967;50.852;4.400;2023-04-24T13:07:49;13.90;99.90
23579;DHT22;11967;50.852;4.400;2023-04-24T13:10:14;13.90;99.90
23579;DHT22;11967;50.852;4.400;2023-04-24T13:12:40;14.00;99.90
23579;DHT22;11967;50.852;4.400;2023-04-24T13:15:06;14.10;99.90
23579;DHT22;11967;50.852;4.400;2023-04-24T13:17:32;14.20;99.90
23579;DHT22;11967;50.852;4.400;2023-04-24T13:19:58;14.30;99.90
23579;DHT22;11967;50.852;4.400;2023-04-24T13:22:24;14.30;99.90
23579;DHT22;11967;50.852;4.400;2023-04-24T13:24:50;14.40;99.90
23579;DHT22;11967;50.852;4.400;2023-04-24T13:27:16;14.30;99.90
23579;DHT22;11967;50.852;4.400;2023-04-24T13:29:42;14.30;99.90
23579;DHT22;11967;50.852;4.400;2023-04-24T13:32:08;14.30;99.90
23579;DHT22;11967;50.852;4.400;2023-04-24T13:34:34;14.30;99.90
23579;DHT22;11967;50.852;4.400;2023-04-24T13:37:01;14.20;99.90
23579;DHT22;11967;50.852;4.400;2023-04-24T13:39:27;14.30;99.90
23579;DHT22;11967;50.852;4.400;2023-04-24T13:41:53;14.30;99.90
23579;DHT22;11967;50.852;4.400;2023-04-24T13:44:20;14.20;99.90
23579;DHT22;11967;50.852;4.400;2023-04-24T13:46:48;14.10;99.90
23579;DHT22;11967;50.852;4.400;2023-04-24T13:49:15;13.90;99.90
23579;DHT22;11967;50.852;4.400;2023-04-24T13:51:42;13.90;99.90
23579;DHT22;11967;50.852;4.400;2023-04-24T13:54:07;13.90;99.90
23579;DHT22;11967;50.852;4.400;2023-04-24T13:56:33;13.90;99.90
23579;DHT22;11967;50.852;4.400;2023-04-24T13:58:59;13.90;99.90
23579;DHT22;11967;50.852;4.400;2023-04-24T14:01:25;13.90;99.90
23579;DHT22;11967;50.852;4.400;2023-04-24T14:03:53;13.90;99.90
23579;DHT22;11967;50.852;4.400;2023-04-24T14:06:19;14.10;99.90
23579;DHT22;11967;50.852;4.400;2023-04-24T14:08:45;14.20;99.90
23579;DHT22;11967;50.852;4.400;2023-04-24T14:11:11;14.30;99.90
23579;DHT22;11967;50.852;4.400;2023-04-24T14:13:37;14.40;99.90
23579;DHT22;11967;50.852;4.400;2023-04-24T14:16:04;14.40;99.90
23579;DHT22;11967;50.852;4.400;2023-04-24T14:18:29;14.30;99.90
23579;DHT22;11967;50.852;4.400;2023-04-24T14:20:55;14.20;99.90
23579;DHT22;11967;50.852;4.400;2023-04-24T14:23:21;14.20;99.90
23579;DHT22;11967;50.852;4.400;2023-04-24T14:25:47;14.20;99.90
23579;DHT22;11967;50.852;4.400;2023-04-24T14:28:18;14.10;99.90
23579;DHT22;11967;50.852;4.400;2023-04-24T14:30:44;14.20;99.90
23579;DHT22;11967;50.852;4.400;2023-04-24T14:33:09;14.20;99.90
23579;DHT22;11967;50.852;4.400;2023-04-24T14:35:36;14.30;99.90
23579;DHT22;11967;50.852;4.400;2023-04-24T14:38:01;14.40;99.90
23579;DHT22;11967;50.852;4.400;2023-04-24T14:40:27;14.30;99.90
23579;DHT22;11967;50.852;4.400;2023-04-24T14:42:53;14.10;99.90
23579;DHT22;11967;50.852;4.400;2023-04-24T14:45:19;13.90;99.90
23579;DHT22;11967;50.852;4.400;2023-04-24T14:47:45;13.90;99.90
23579;DHT22;11967;50.852;4.400;2023-04-24T14:50:10;13.90;99.90
23579;DHT22;11967;50.852;4.400;2023-04-24T14:52:38;13.90;99.90
23579;DHT22;11967;50.852;4.400;2023-04-24T14:55:04;13.80;99.90
23579;DHT22;11967;50.852;4.400;2023-04-24T14:57:30;13.90;99.90
23579;DHT22;11967;50.852;4.400;2023-04-24T14:59:56;13.90;99.90
23579;DHT22;11967;50.852;4.400;2023-04-24T15:02:21;13.90;99.90
23579;DHT22;11967;50.852;4.400;2023-04-24T15:04:47;13.80;99.90
23579;DHT22;11967;50.852;4.400;2023-04-24T15:07:13;13.80;99.90
23579;DHT22;11967;50.852;4.400;2023-04-24T15:09:38;13.90;99.90
23579;DHT22;11967;50.852;4.400;2023-04-24T15:12:04;13.80;99.90
23579;DHT22;11967;50.852;4.400;2023-04-24T15:14:30;13.80;99.90
23579;DHT22;11967;50.852;4.400;2023-04-24T15:16:56;13.90;99.90
23579;DHT22;11967;50.852;4.400;2023-04-24T15:19:21;13.80;99.90
23579;DHT22;11967;50.852;4.400;2023-04-24T15:21:47;13.90;99.90
23579;DHT22;11967;50.852;4.400;2023-04-24T15:24:12;13.90;99.90
23579;DHT22;11967;50.852;4.400;2023-04-24T15:26:39;13.90;99.90
23579;DHT22;11967;50.852;4.400;2023-04-24T15:29:05;13.90;99.90
23579;DHT22;11967;50.852;4.400;2023-04-24T15:31:34;13.80;99.90
23579;DHT22;11967;50.852;4.400;2023-04-24T15:33:59;13.80;99.90
23579;DHT22;11967;50.852;4.400;2023-04-24T15:36:25;13.90;99.90